Time;durP1;ratioP1;P1;durP2;ratioP2;P2;SDS_P1;SDS_P2;PMS_P1;PMS_P2;Temp;Humidity;BMP_temperature;BMP_pressure;BME280_temperature;BME280_humidity;BME280_pressure;Samples;Min_cycle;Max_cycle;Signal;HPM_P1;HPM_P2
2023/05/07 00:00:19;;;;;;;63.75;48.17;;;;;;;13.36;100.00;101429.75;4993467;28;20457;-42
2023/05/07 00:02:45;;;;;;;62.83;49.70;;;;;;;13.76;100.00;101493.56;4975226;28;20038;-43
2023/05/07 00:05:11;;;;;;;62.15;49.33;;;;;;;13.79;100.00;101501.41;4993087;28;20046;-42
2023/05/07 00:07:36;;;;;;;62.05;48.35;;;;;;;13.79;100.00;101495.25;4993327;28;20039;-43
2023/05/07 00:10:02;;;;;;;55.50;46.55;;;;;;;13.80;100.00;101497.84;4993237;28;20038;-45
2023/05/07 00:12:31;;;;;;;58.30;46.38;;;;;;;13.83;100.00;101500.41;4976109;28;20597;-42
2023/05/07 00:14:56;;;;;;;58.33;45.45;;;;;;;13.53;100.00;101453.84;4993404;28;20478;-43
2023/05/07 00:17:22;;;;;;;56.83;45.05;;;;;;;13.84;100.00;101503.88;4975820;28;20040;-44
2023/05/07 00:19:47;;;;;;;59.47;46.45;;;;;;;13.45;100.00;101451.47;4992180;28;20383;-42
2023/05/07 00:22:12;;;;;;;53.97;46.25;;;;;;;13.83;100.00;101518.06;4993274;28;20057;-45
2023/05/07 00:24:38;;;;;;;56.55;46.05;;;;;;;13.47;100.00;101443.47;4992996;28;20049;-43
2023/05/07 00:27:03;;;;;;;57.50;44.92;;;;;;;13.63;100.00;101479.03;4992945;28;20073;-41
2023/05/07 00:29:28;;;;;;;55.63;44.53;;;;;;;13.81;100.00;101503.97;4993171;28;20034;-42
2023/05/07 00:31:54;;;;;;;57.60;44.88;;;;;;;13.76;100.00;101501.50;4993385;28;20038;-42
2023/05/07 00:34:20;;;;;;;51.60;43.50;;;;;;;13.78;100.00;101489.09;4975696;28;20046;-41
2023/05/07 00:36:45;;;;;;;58.00;45.40;;;;;;;13.78;100.00;101493.50;4992044;28;20037;-41
2023/05/07 00:39:11;;;;;;;56.22;43.22;;;;;;;13.77;100.00;101495.31;4991997;28;20046;-42
2023/05/07 00:41:36;;;;;;;54.85;43.63;;;;;;;13.60;100.00;101468.56;4993099;28;20034;-41
2023/05/07 00:44:02;;;;;;;55.80;43.60;;;;;;;13.71;100.00;101500.81;4993013;28;20049;-42
2023/05/07 00:46:28;;;;;;;57.88;43.10;;;;;;;13.30;100.00;101429.97;4992600;28;20042;-42
2023/05/07 00:48:54;;;;;;;52.70;41.22;;;;;;;13.32;100.00;101441.34;4975390;28;20035;-42
2023/05/07 00:51:19;;;;;;;57.60;44.13;;;;;;;13.47;100.00;101473.44;4992700;28;20092;-45
2023/05/07 00:53:45;;;;;;;54.42;43.42;;;;;;;13.42;100.00;101454.22;4992726;28;20116;-42
2023/05/07 00:56:11;;;;;;;54.95;43.63;;;;;;;13.45;100.00;101469.97;4974263;28;20026;-42
2023/05/07 00:58:36;;;;;;;54.83;43.50;;;;;;;13.66;100.00;101496.59;4992932;28;20158;-43
2023/05/07 01:01:02;;;;;;;52.33;43.10;;;;;;;13.67;100.00;101496.53;4992888;28;20389;-44
2023/05/07 01:03:27;;;;;;;58.83;44.20;;;;;;;13.69;100.00;101486.75;4992382;28;20069;-43
2023/05/07 01:05:53;;;;;;;52.67;43.35;;;;;;;13.19;100.00;101403.88;4974990;28;20100;-41
2023/05/07 01:08:19;;;;;;;54.97;43.15;;;;;;;13.67;100.00;101480.66;4974408;28;20109;-41
2023/05/07 01:10:44;;;;;;;56.60;42.55;;;;;;;13.68;100.00;101485.06;4959137;28;20521;-43
2023/05/07 01:13:10;;;;;;;55.80;42.92;;;;;;;13.64;100.00;101480.78;4975255;28;20486;-40
2023/05/07 01:15:36;;;;;;;56.67;43.70;;;;;;;13.70;100.00;101493.78;4992869;28;20104;-41
2023/05/07 01:18:02;;;;;;;52.45;42.85;;;;;;;13.71;100.00;101489.38;4959344;28;20045;-41
2023/05/07 01:20:28;;;;;;;53.40;42.17;;;;;;;13.68;100.00;101473.59;4991096;28;20388;-41
2023/05/07 01:22:53;;;;;;;57.97;43.80;;;;;;;13.66;100.00;101481.56;4974945;28;20040;-41
2023/05/07 01:25:19;;;;;;;59.97;43.15;;;;;;;13.25;100.00;101408.94;4991839;28;20034;-43
2023/05/07 01:27:44;;;;;;;54.88;43.45;;;;;;;13.20;100.00;101399.47;4992622;28;20053;-43
2023/05/07 01:30:10;;;;;;;55.42;42.80;;;;;;;13.18;100.00;101403.94;4975210;28;20030;-43
2023/05/07 01:32:57;;;;;;;59.67;43.90;;;;;;;13.18;100.00;101417.16;4974911;28;20478;-42
2023/05/07 01:35:26;;;;;;;58.50;44.25;;;;;;;13.45;100.00;101474.41;4975280;28;20084;-44
2023/05/07 01:37:52;;;;;;;66.28;45.65;;;;;;;13.05;100.00;101408.72;4974991;28;20023;-42
2023/05/07 01:40:18;;;;;;;63.42;46.50;;;;;;;13.36;100.00;101472.94;4973418;28;20050;-47
2023/05/07 01:42:43;;;;;;;62.05;44.65;;;;;;;13.32;100.00;101468.66;4991870;28;20532;-42
2023/05/07 01:45:10;;;;;;;64.18;45.78;;;;;;;12.90;100.00;101406.63;4975200;28;20061;-41
2023/05/07 01:47:36;;;;;;;58.33;44.28;;;;;;;12.98;100.00;101425.72;4973396;28;20446;-42
2023/05/07 01:50:02;;;;;;;62.05;46.15;;;;;;;13.18;100.00;101468.25;4978165;28;20038;-42
2023/05/07 01:52:27;;;;;;;62.92;46.22;;;;;;;12.82;100.00;101404.22;4978755;28;20210;-45
2023/05/07 01:54:53;;;;;;;65.00;46.50;;;;;;;13.20;100.00;101470.84;4996125;28;20058;-44
2023/05/07 01:57:18;;;;;;;59.00;43.10;;;;;;;13.20;100.00;101474.34;4995928;28;20030;-43
2023/05/07 01:59:43;;;;;;;61.85;45.13;;;;;;;13.13;100.00;101462.25;4995887;28;20047;-42
2023/05/07 02:02:09;;;;;;;64.07;45.08;;;;;;;13.25;100.00;101477.69;4995747;28;20207;-44
2023/05/07 02:04:34;;;;;;;62.95;44.50;;;;;;;12.96;100.00;101422.25;4995084;28;20034;-42
2023/05/07 02:07:00;;;;;;;60.30;44.47;;;;;;;13.32;100.00;101470.44;4995256;28;20121;-41
2023/05/07 02:09:25;;;;;;;59.00;43.33;;;;;;;12.99;100.00;101416.88;4995680;28;20131;-44
2023/05/07 02:11:50;;;;;;;61.08;44.08;;;;;;;13.41;100.00;101480.69;4995813;28;20082;-42
2023/05/07 02:14:16;;;;;;;53.65;42.67;;;;;;;13.11;100.00;101418.28;4995663;28;20042;-43
2023/05/07 02:16:41;;;;;;;59.22;42.03;;;;;;;13.45;100.00;101474.41;4995281;28;20395;-41
2023/05/07 02:19:06;;;;;;;53.90;42.58;;;;;;;13.39;100.00;101464.91;4995441;28;20478;-41
2023/05/07 02:21:32;;;;;;;57.38;42.22;;;;;;;13.13;100.00;101425.25;4973878;28;20122;-40
2023/05/07 02:23:57;;;;;;;54.45;42.20;;;;;;;13.13;100.00;101421.75;4976081;28;20038;-41
2023/05/07 02:26:22;;;;;;;49.67;41.28;;;;;;;13.45;100.00;101477.03;4976305;28;20475;-42
2023/05/07 02:28:48;;;;;;;51.85;41.95;;;;;;;13.49;100.00;101476.00;4976103;28;20114;-42
2023/05/07 02:31:13;;;;;;;51.88;40.17;;;;;;;13.46;100.00;101484.91;4975812;28;20082;-43
2023/05/07 02:33:38;;;;;;;56.60;42.22;;;;;;;12.96;100.00;101388.78;4958224;28;20054;-41
2023/05/07 02:36:11;;;;;;;56.53;42.53;;;;;;;13.41;100.00;101478.06;4975739;28;20045;-44
2023/05/07 02:38:36;;;;;;;54.83;41.30;;;;;;;13.44;100.00;101475.31;4987645;28;20042;-41
2023/05/07 02:41:02;;;;;;;54.83;42.53;;;;;;;13.41;100.00;101476.28;4995271;28;20088;-42
2023/05/07 02:43:28;;;;;;;50.90;41.30;;;;;;;13.36;100.00;101478.22;4994828;28;20080;-41
2023/05/07 02:46:07;;;;;;;55.28;42.75;;;;;;;13.27;100.00;101460.03;4995260;28;20026;-42
2023/05/07 02:48:33;;;;;;;51.72;41.33;;;;;;;13.20;100.00;101445.25;4995378;28;20029;-41
2023/05/07 02:50:59;;;;;;;51.38;41.58;;;;;;;13.37;100.00;101469.34;4994925;28;20035;-41
2023/05/07 02:53:29;;;;;;;48.70;41.22;;;;;;;13.46;100.00;101476.97;4977429;28;20034;-45
2023/05/07 02:55:56;;;;;;;50.28;40.30;;;;;;;13.47;100.00;101477.84;4994187;28;20505;-42
2023/05/07 02:58:21;;;;;;;46.95;38.60;;;;;;;13.49;100.00;101474.22;4977482;28;20031;-42
2023/05/07 03:00:46;;;;;;;48.20;39.15;;;;;;;13.20;100.00;101431.19;4993984;28;20401;-43
2023/05/07 03:03:12;;;;;;;46.95;39.97;;;;;;;13.44;100.00;101473.53;4994843;28;20046;-43
2023/05/07 03:05:37;;;;;;;49.47;40.78;;;;;;;13.35;100.00;101454.47;4994510;28;20074;-41
2023/05/07 03:08:03;;;;;;;48.72;40.03;;;;;;;13.50;100.00;101477.75;4994865;28;20041;-44
2023/05/07 03:10:29;;;;;;;45.47;40.03;;;;;;;13.51;100.00;101482.97;4993466;28;20038;-42
2023/05/07 03:12:55;;;;;;;45.13;38.42;;;;;;;13.53;100.00;101489.09;4994606;28;20210;-42
2023/05/07 03:15:21;;;;;;;47.30;38.78;;;;;;;13.21;100.00;101425.84;4994596;28;20365;-41
2023/05/07 03:17:47;;;;;;;41.95;36.95;;;;;;;13.49;100.00;101468.06;4994617;28;20486;-44
2023/05/07 03:20:12;;;;;;;43.78;38.20;;;;;;;13.23;100.00;101425.78;4994337;28;20049;-41
2023/05/07 03:22:38;;;;;;;43.47;37.65;;;;;;;13.29;100.00;101422.94;4994555;28;20034;-43
2023/05/07 03:25:04;;;;;;;40.58;36.17;;;;;;;13.28;100.00;101427.34;4994633;28;20042;-42
2023/05/07 03:27:29;;;;;;;39.30;35.15;;;;;;;13.25;100.00;101423.97;4993399;28;20038;-42
2023/05/07 03:29:55;;;;;;;40.50;36.22;;;;;;;13.61;100.00;101477.38;4994232;28;20528;-42
2023/05/07 03:32:20;;;;;;;40.47;35.28;;;;;;;13.30;100.00;101425.53;4993825;28;20508;-43
2023/05/07 03:34:45;;;;;;;41.40;36.42;;;;;;;13.62;100.00;101487.03;4994252;28;20117;-44
2023/05/07 03:37:11;;;;;;;38.75;34.65;;;;;;;13.62;100.00;101482.63;4993980;28;20073;-41
2023/05/07 03:39:36;;;;;;;37.97;33.95;;;;;;;13.63;100.00;101472.91;4993299;28;20088;-43
2023/05/07 03:42:02;;;;;;;42.20;36.58;;;;;;;13.29;100.00;101410.59;4994097;28;20077;-41
2023/05/07 03:44:27;;;;;;;38.22;34.28;;;;;;;13.56;100.00;101459.03;4993915;28;20042;-42
2023/05/07 03:46:52;;;;;;;37.92;33.83;;;;;;;13.47;100.00;101462.84;4993398;28;20049;-42
2023/05/07 03:49:18;;;;;;;38.72;34.75;;;;;;;13.57;100.00;101471.34;4976600;28;20048;-42
2023/05/07 03:51:43;;;;;;;41.03;36.78;;;;;;;13.60;100.00;101468.56;4993828;28;20036;-42
2023/05/07 03:54:08;;;;;;;38.33;34.33;;;;;;;13.59;100.00;101469.50;4993481;28;20081;-41
2023/05/07 03:56:34;;;;;;;38.67;34.25;;;;;;;13.29;100.00;101422.94;4976436;28;20038;-41
2023/05/07 03:59:00;;;;;;;38.10;34.10;;;;;;;13.57;100.00;101470.47;4992892;28;20065;-41
2023/05/07 04:01:26;;;;;;;38.28;34.10;;;;;;;13.58;100.00;101480.97;4976101;28;20030;-42
2023/05/07 04:03:51;;;;;;;36.65;32.80;;;;;;;13.29;100.00;101428.22;4993210;28;20057;-43
2023/05/07 04:06:19;;;;;;;36.60;32.78;;;;;;;13.58;100.00;101482.75;4944207;28;20129;-42
2023/05/07 04:08:45;;;;;;;37.78;32.75;;;;;;;13.59;100.00;101488.00;4993540;28;20041;-41
2023/05/07 04:11:10;;;;;;;34.42;31.00;;;;;;;13.59;100.00;101495.06;4992954;28;20486;-41
2023/05/07 04:13:35;;;;;;;35.75;31.90;;;;;;;13.28;100.00;101437.09;4975757;28;20486;-42
2023/05/07 04:16:02;;;;;;;35.10;31.40;;;;;;;13.62;100.00;101489.69;4992750;28;20050;-44
2023/05/07 04:18:27;;;;;;;33.42;29.92;;;;;;;13.33;100.00;101437.78;4975816;28;20535;-43
2023/05/07 04:20:53;;;;;;;33.75;30.50;;;;;;;13.30;100.00;101432.63;4975699;28;20026;-41
2023/05/07 04:23:18;;;;;;;33.20;29.73;;;;;;;13.61;100.00;101480.88;4992834;28;20121;-43
2023/05/07 04:25:43;;;;;;;33.92;30.50;;;;;;;13.35;100.00;101439.47;4993205;28;20113;-44
2023/05/07 04:28:09;;;;;;;31.35;28.33;;;;;;;13.67;100.00;101490.38;4993049;28;20055;-43
2023/05/07 04:30:34;;;;;;;31.88;28.52;;;;;;;13.54;100.00;101472.28;4991974;28;20061;-42
2023/05/07 04:32:59;;;;;;;31.42;28.42;;;;;;;13.47;100.00;101457.56;4975500;28;20061;-46
2023/05/07 04:35:25;;;;;;;31.90;28.30;;;;;;;13.37;100.00;101432.34;4992937;28;20138;-43
2023/05/07 04:37:50;;;;;;;31.70;28.35;;;;;;;13.69;100.00;101493.84;4975731;28;20037;-43
2023/05/07 04:40:16;;;;;;;30.23;27.05;;;;;;;13.64;100.00;101479.91;4992339;28;20070;-42
2023/05/07 04:42:41;;;;;;;30.13;27.13;;;;;;;13.63;100.00;101464.97;4992526;28;20109;-43
2023/05/07 04:45:08;;;;;;;29.90;26.83;;;;;;;13.35;100.00;101420.97;4992902;28;20126;-43
2023/05/07 04:47:34;;;;;;;31.42;28.08;;;;;;;13.45;100.00;101446.19;4992038;28;20478;-42
2023/05/07 04:49:59;;;;;;;29.45;26.65;;;;;;;13.78;100.00;101502.31;4992579;28;20036;-41
2023/05/07 04:52:24;;;;;;;30.10;27.08;;;;;;;13.73;100.00;101484.88;4992913;28;20031;-42
2023/05/07 04:54:50;;;;;;;29.58;26.85;;;;;;;13.80;100.00;101489.91;4992798;28;20031;-42
2023/05/07 04:57:17;;;;;;;30.05;27.05;;;;;;;13.84;100.00;101488.00;4992432;28;20034;-42
2023/05/07 04:59:43;;;;;;;28.83;25.98;;;;;;;13.84;100.00;101488.88;4992571;28;20035;-44
2023/05/07 05:02:10;;;;;;;28.33;25.52;;;;;;;13.89;100.00;101494.03;4973903;28;20117;-44
2023/05/07 05:04:35;;;;;;;28.38;25.48;;;;;;;13.57;100.00;101438.72;4985908;28;20066;-42
2023/05/07 05:07:00;;;;;;;27.63;24.85;;;;;;;13.95;100.00;101501.75;4992520;28;20026;-47
2023/05/07 05:09:25;;;;;;;27.52;24.83;;;;;;;13.69;100.00;101459.47;4990841;28;20046;-41
2023/05/07 05:11:51;;;;;;;27.40;24.70;;;;;;;13.74;100.00;101450.44;4992427;28;20390;-41
2023/05/07 05:14:16;;;;;;;27.20;24.35;;;;;;;13.75;100.00;101449.50;4992684;28;20038;-41
2023/05/07 05:16:42;;;;;;;25.63;23.08;;;;;;;14.08;100.00;101509.19;4992703;28;20074;-41
2023/05/07 05:19:07;;;;;;;28.08;25.27;;;;;;;14.18;100.00;101509.72;4969794;28;20035;-45
2023/05/07 05:21:32;;;;;;;27.13;24.60;;;;;;;14.19;100.00;101495.53;4975229;28;20026;-44
2023/05/07 05:23:58;;;;;;;27.52;24.77;;;;;;;14.17;100.00;101485.94;4994552;28;20038;-44
2023/05/07 05:26:23;;;;;;;28.55;25.73;;;;;;;14.31;100.00;101508.31;4996292;28;20579;-41
2023/05/07 05:28:49;;;;;;;27.42;24.65;;;;;;;14.20;100.00;101491.09;4993619;28;20556;-43
2023/05/07 05:31:15;;;;;;;26.88;24.10;;;;;;;14.31;100.00;101503.03;4991924;28;20053;-41
2023/05/07 05:33:40;;;;;;;26.77;24.05;;;;;;;14.37;100.00;101517.84;4987714;28;20548;-41
2023/05/07 05:36:06;;;;;;;26.00;23.50;;;;;;;14.36;100.00;101513.50;4976884;28;20035;-45
2023/05/07 05:38:31;;;;;;;26.27;23.73;;;;;;;14.33;100.00;101509.16;4965072;28;20034;-40
2023/05/07 05:40:57;;;;;;;25.88;23.23;;;;;;;14.44;100.00;101522.03;4976728;28;20042;-44
2023/05/07 05:43:22;;;;;;;27.33;24.55;;;;;;;14.46;100.00;101523.69;4976383;28;20077;-41
2023/05/07 05:45:47;;;;;;;26.58;24.08;;;;;;;14.19;100.00;101468.19;4984066;28;20081;-40
2023/05/07 05:48:13;;;;;;;26.42;23.85;;;;;;;14.23;100.00;101467.16;4958620;28;20086;-43
2023/05/07 05:50:38;;;;;;;27.23;24.50;;;;;;;14.53;100.00;101513.72;4994326;28;20038;-41
2023/05/07 05:53:04;;;;;;;26.95;24.50;;;;;;;14.37;100.00;101478.13;4995406;28;20104;-40
2023/05/07 05:55:29;;;;;;;26.75;24.27;;;;;;;14.37;100.00;101473.69;4995453;28;20282;-41
2023/05/07 05:57:55;;;;;;;26.48;23.88;;;;;;;14.75;100.00;101527.88;4995199;28;20030;-41
2023/05/07 06:00:22;;;;;;;26.67;23.90;;;;;;;14.83;100.00;101531.09;4977226;28;20038;-42
2023/05/07 06:02:48;;;;;;;25.27;23.02;;;;;;;14.67;100.00;101478.75;4976714;28;20117;-42
2023/05/07 06:05:13;;;;;;;24.20;22.00;;;;;;;14.48;100.00;101437.06;4994359;28;20185;-41
2023/05/07 06:07:38;;;;;;;25.08;22.73;;;;;;;15.12;100.00;101530.78;4973701;28;20130;-41
2023/05/07 06:10:04;;;;;;;25.38;22.88;;;;;;;14.76;100.00;101468.66;4976049;28;20113;-40
2023/05/07 06:12:30;;;;;;;25.77;22.95;;;;;;;15.20;100.00;101535.81;4942873;28;20039;-42
2023/05/07 06:14:55;;;;;;;25.13;22.83;;;;;;;14.90;100.00;101482.22;4976165;28;20105;-41
2023/05/07 06:17:20;;;;;;;24.05;21.75;;;;;;;15.24;100.00;101542.69;4975648;28;20551;-46
2023/05/07 06:19:46;;;;;;;26.48;23.88;;;;;;;15.30;100.00;101523.88;4976084;28;20483;-41
2023/05/07 06:22:11;;;;;;;27.30;24.63;;;;;;;15.23;100.00;101501.22;4975905;28;20529;-41
2023/05/07 06:24:36;;;;;;;25.55;23.05;;;;;;;15.47;100.00;101525.91;4986543;28;20030;-41
2023/05/07 06:27:01;;;;;;;26.70;23.90;;;;;;;15.64;100.00;101542.81;4977860;28;20054;-43
2023/05/07 06:29:27;;;;;;;23.75;21.52;;;;;;;15.51;100.00;101503.59;4995440;28;20104;-41
2023/05/07 06:31:53;;;;;;;24.17;21.98;;;;;;;15.93;100.00;101548.69;4994994;28;20062;-41
2023/05/07 06:34:19;;;;;;;23.77;21.48;;;;;;;15.87;100.00;101487.88;4994355;28;20398;-41
2023/05/07 06:36:44;;;;;;;24.48;21.92;;;;;;;16.02;100.00;101495.19;4994578;28;20043;-43
2023/05/07 06:39:09;;;;;;;23.52;21.27;;;;;;;16.50;100.00;101553.19;4995001;28;20042;-40
2023/05/07 06:41:35;;;;;;;25.25;22.63;;;;;;;16.54;100.00;101547.72;4994319;28;20467;-41
2023/05/07 06:44:04;;;;;;;23.67;21.35;;;;;;;16.43;100.00;101536.69;4995309;28;20502;-41
2023/05/07 06:46:30;;;;;;;23.80;21.50;;;;;;;16.32;100.00;101530.97;4994754;28;20434;-41
2023/05/07 06:48:56;;;;;;;23.40;21.15;;;;;;;16.29;100.00;101541.75;4977508;28;20180;-41
2023/05/07 06:51:22;;;;;;;23.70;21.55;;;;;;;16.17;100.00;101527.22;4994639;28;20085;-41
2023/05/07 06:53:47;;;;;;;25.23;22.83;;;;;;;16.23;100.00;101556.16;4977144;28;20038;-41
2023/05/07 06:56:12;;;;;;;25.05;22.52;;;;;;;16.28;100.00;101567.47;4994765;28;20041;-41
2023/05/07 06:58:37;;;;;;;22.60;20.23;;;;;;;16.33;100.00;101551.31;4994091;28;20042;-41
2023/05/07 07:01:03;;;;;;;22.33;20.10;;;;;;;16.51;100.00;101562.91;4977361;28;20050;-41
2023/05/07 07:03:28;;;;;;;22.60;20.27;;;;;;;16.55;100.00;101549.44;4977381;28;20046;-41
2023/05/07 07:05:54;;;;;;;22.67;20.67;;;;;;;16.21;100.00;101512.88;4994737;28;20068;-42
2023/05/07 07:08:21;;;;;;;23.33;20.60;;;;;;;16.54;100.00;101555.69;4977205;28;20048;-41
2023/05/07 07:10:47;;;;;;;23.90;21.65;;;;;;;16.51;100.00;101558.47;4994269;28;20044;-42
2023/05/07 07:13:12;;;;;;;23.33;21.23;;;;;;;16.51;100.00;101560.25;4994403;28;20031;-42
2023/05/07 07:15:38;;;;;;;19.85;17.85;;;;;;;16.40;100.00;101550.13;4993744;28;20049;-43
2023/05/07 07:18:03;;;;;;;20.77;18.83;;;;;;;16.39;100.00;101545.72;4977140;28;20078;-41
2023/05/07 07:20:29;;;;;;;21.85;19.67;;;;;;;16.09;100.00;101496.63;4960668;28;20404;-42
2023/05/07 07:22:54;;;;;;;20.63;18.70;;;;;;;16.54;100.00;101568.97;4994424;28;20394;-41
2023/05/07 07:25:20;;;;;;;22.25;20.05;;;;;;;16.68;100.00;101552.41;4994120;28;20371;-45
2023/05/07 07:27:45;;;;;;;19.25;17.25;;;;;;;16.66;100.00;101517.06;4994495;28;20039;-44
2023/05/07 07:30:10;;;;;;;20.13;18.42;;;;;;;17.18;100.00;101558.84;4994006;28;20393;-41
2023/05/07 07:32:36;;;;;;;17.23;15.65;;;;;;;17.45;100.00;101504.25;4993406;28;20057;-42
2023/05/07 07:35:02;;;;;;;15.63;13.73;;;;;;;18.62;100.00;101558.59;4994163;28;20038;-45
2023/05/07 07:37:27;;;;;;;15.43;13.93;;;;;;;18.98;100.00;101520.06;4994043;28;20042;-45
2023/05/07 07:39:52;;;;;;;13.63;12.43;;;;;;;19.47;100.00;101525.28;4976173;28;20478;-41
2023/05/07 07:42:18;;;;;;;13.65;12.43;;;;;;;19.85;100.00;101539.06;4976693;28;20034;-44
2023/05/07 07:44:43;;;;;;;13.45;12.05;;;;;;;20.24;100.00;101590.09;4960398;28;20040;-42
2023/05/07 07:47:09;;;;;;;12.50;11.30;;;;;;;19.99;100.00;101600.53;4974657;28;20106;-43
2023/05/07 07:49:35;;;;;;;13.45;12.15;;;;;;;19.59;100.00;101580.63;4993844;28;20110;-43
2023/05/07 07:52:00;;;;;;;15.02;13.55;;;;;;;19.39;100.00;101591.59;4976387;28;20482;-44
2023/05/07 07:54:26;;;;;;;13.38;11.98;;;;;;;18.85;100.00;101558.19;4993857;28;20070;-42
2023/05/07 07:56:52;;;;;;;13.40;12.18;;;;;;;19.03;100.00;101582.00;4993696;28;20437;-43
2023/05/07 07:59:18;;;;;;;12.65;11.43;;;;;;;19.06;100.00;101579.19;4976027;28;20034;-43
2023/05/07 08:01:44;;;;;;;19.40;12.90;;;;;;;18.89;100.00;101538.38;4976536;28;20512;-43
2023/05/07 08:04:10;;;;;;;13.30;12.02;;;;;;;19.27;100.00;101542.41;4993375;28;20113;-42
2023/05/07 08:06:35;;;;;;;12.68;11.38;;;;;;;19.62;100.00;101581.31;4975115;28;20038;-43
2023/05/07 08:09:00;;;;;;;13.38;11.88;;;;;;;19.80;100.00;101584.72;4975885;28;20038;-45
2023/05/07 08:11:26;;;;;;;12.98;11.77;;;;;;;19.89;100.00;101577.97;4993500;28;20088;-41
2023/05/07 08:13:52;;;;;;;12.27;10.93;;;;;;;19.97;100.00;101583.72;4993414;28;20454;-41
2023/05/07 08:16:17;;;;;;;14.93;11.73;;;;;;;20.23;100.00;101594.56;4993594;28;20039;-44
2023/05/07 08:18:42;;;;;;;12.13;10.85;;;;;;;20.46;100.00;101592.38;4993207;28;20038;-43
2023/05/07 08:21:08;;;;;;;10.90;9.68;;;;;;;20.54;100.00;101603.44;4974213;28;20118;-43
2023/05/07 08:23:34;;;;;;;12.98;11.50;;;;;;;20.62;100.00;101606.50;4991905;28;20034;-44
2023/05/07 08:26:00;;;;;;;15.75;14.15;;;;;;;20.48;100.00;101563.69;4993574;28;20106;-43
2023/05/07 08:28:25;;;;;;;8.98;8.10;;;;;;;20.32;100.00;101512.13;4993262;28;20199;-47
2023/05/07 08:30:50;;;;;;;8.30;7.50;;;;;;;20.61;100.00;101572.66;4975790;28;20397;-42
2023/05/07 08:33:16;;;;;;;8.02;7.20;;;;;;;21.09;100.00;101624.94;4992804;28;20050;-42
2023/05/07 08:35:41;;;;;;;8.43;7.55;;;;;;;21.51;100.00;101635.56;4993189;28;20501;-43
2023/05/07 08:38:07;;;;;;;9.00;7.63;;;;;;;21.71;100.00;101634.28;4992319;28;20046;-44
2023/05/07 08:40:39;;;;;;;9.55;8.70;;;;;;;22.05;100.00;101636.44;4959147;28;20557;-43
2023/05/07 08:43:05;;;;;;;9.13;8.25;;;;;;;21.91;100.00;101568.66;4993070;28;20026;-43
2023/05/07 08:45:32;;;;;;;10.27;9.27;;;;;;;21.93;100.00;101577.44;4975818;28;20085;-42
2023/05/07 08:47:59;;;;;;;10.10;9.13;;;;;;;22.00;100.00;101635.03;4959521;28;20034;-46
2023/05/07 08:50:24;;;;;;;9.45;8.55;;;;;;;21.63;100.00;101570.47;4975514;28;20034;-43
2023/05/07 08:52:50;;;;;;;9.27;8.38;;;;;;;21.71;100.00;101586.91;4943539;28;20086;-46
2023/05/07 08:55:15;;;;;;;7.80;7.00;;;;;;;21.70;100.00;101603.06;4991695;28;20096;-44
2023/05/07 08:57:41;;;;;;;10.07;8.02;;;;;;;21.60;100.00;101575.19;4975348;28;20096;-42
2023/05/07 09:00:07;;;;;;;10.48;9.10;;;;;;;22.00;100.00;101627.88;4992799;28;20042;-42
2023/05/07 09:02:33;;;;;;;8.57;7.60;;;;;;;21.89;100.00;101638.41;4991743;28;20049;-44
2023/05/07 09:04:58;;;;;;;7.95;7.15;;;;;;;21.68;100.00;101588.94;4975223;28;20188;-41
2023/05/07 09:07:24;;;;;;;9.40;7.53;;;;;;;21.77;100.00;101580.28;4975063;28;20125;-41
2023/05/07 09:09:50;;;;;;;9.77;7.60;;;;;;;22.00;100.00;101605.56;4993068;28;20030;-44
2023/05/07 09:12:17;;;;;;;9.45;8.23;;;;;;;22.10;100.00;101641.47;4992647;28;20518;-43
2023/05/07 09:14:42;;;;;;;10.85;8.75;;;;;;;21.95;100.00;101640.69;4975537;28;20085;-45
2023/05/07 09:17:08;;;;;;;11.80;8.77;;;;;;;21.88;100.00;101634.03;4992053;28;20034;-43
2023/05/07 09:19:33;;;;;;;11.77;8.57;;;;;;;22.15;100.00;101634.88;4991409;28;20042;-44
2023/05/07 09:22:00;;;;;;;10.60;9.60;;;;;;;22.17;100.00;101591.84;4992577;28;20107;-45
2023/05/07 09:24:26;;;;;;;11.55;10.00;;;;;;;22.54;100.00;101590.13;4975332;28;20548;-45
2023/05/07 09:26:51;;;;;;;11.07;9.98;;;;;;;23.13;100.00;101588.56;4975224;28;20034;-43
2023/05/07 09:29:18;;;;;;;10.95;9.80;;;;;;;23.38;100.00;101516.84;4991551;28;20061;-43
2023/05/07 09:31:43;;;;;;;11.18;10.05;;;;;;;24.81;100.00;101662.66;4973897;28;20045;-42
2023/05/07 09:34:09;;;;;;;9.30;8.50;;;;;;;25.12;100.00;101594.59;4973747;28;20050;-44
2023/05/07 09:36:34;;;;;;;9.38;7.88;;;;;;;25.95;100.00;101647.97;4974918;28;20030;-43
2023/05/07 09:39:00;;;;;;;10.32;7.90;;;;;;;25.81;100.00;101618.56;4992090;28;20061;-44
2023/05/07 09:41:26;;;;;;;7.72;7.03;;;;;;;25.39;100.00;101628.38;4992582;28;20038;-44
2023/05/07 09:43:55;;;;;;;9.15;7.00;;;;;;;25.37;100.00;101670.72;4974229;28;20438;-44
2023/05/07 09:46:25;;;;;;;8.52;7.60;;;;;;;24.47;100.00;101605.22;4992149;28;20026;-44
2023/05/07 09:48:53;;;;;;;8.45;7.28;;;;;;;24.24;100.00;101610.66;4973777;28;20084;-45
2023/05/07 09:51:26;;;;;;;9.15;8.23;;;;;;;23.81;100.00;101654.25;4991774;28;20058;-45
2023/05/07 09:53:52;;;;;;;8.75;7.93;;;;;;;23.37;100.00;101646.75;4991385;28;20027;-43
2023/05/07 09:56:18;;;;;;;8.68;7.55;;;;;;;22.67;100.00;101605.31;4992323;28;20470;-44
2023/05/07 09:58:45;;;;;;;10.10;9.10;;;;;;;22.30;100.00;101644.53;4975091;28;20034;-42
2023/05/07 10:01:11;;;;;;;9.90;8.90;;;;;;;21.73;100.00;101616.25;4990614;28;20097;-43
2023/05/07 10:03:40;;;;;;;12.15;9.55;;;;;;;21.58;100.00;101639.56;4990956;28;20100;-43
2023/05/07 10:06:05;;;;;;;10.80;9.80;;;;;;;21.10;100.00;101602.59;4991526;28;20038;-43
2023/05/07 10:08:31;;;;;;;11.13;9.95;;;;;;;20.86;100.00;101585.38;4974892;28;20121;-42
2023/05/07 10:10:56;;;;;;;13.45;10.32;;;;;;;21.06;100.00;101655.44;4978003;28;20062;-44
2023/05/07 10:13:21;;;;;;;10.93;9.48;;;;;;;20.96;100.00;101642.69;4962015;28;20030;-43
2023/05/07 10:15:47;;;;;;;11.13;9.60;;;;;;;21.18;100.00;101653.81;4978369;28;20034;-43
2023/05/07 10:18:13;;;;;;;13.52;10.38;;;;;;;20.94;100.00;101591.97;4995609;28;20026;-44
2023/05/07 10:20:39;;;;;;;9.88;8.88;;;;;;;21.52;100.00;101653.38;4978301;28;20033;-43
2023/05/07 10:23:05;;;;;;;10.90;8.43;;;;;;;21.67;100.00;101604.13;4978259;28;20060;-41
2023/05/07 10:25:32;;;;;;;11.65;8.20;;;;;;;22.49;100.00;101665.59;4994563;28;20045;-44
2023/05/07 10:28:03;;;;;;;12.48;8.60;;;;;;;22.86;100.00;101658.53;4995213;28;20022;-46
2023/05/07 10:30:40;;;;;;;9.00;7.72;;;;;;;23.17;100.00;101676.91;4978045;28;20432;-45
2023/05/07 10:33:09;;;;;;;9.60;7.85;;;;;;;23.37;100.00;101649.44;4977648;28;20050;-43
2023/05/07 10:35:45;;;;;;;9.45;8.35;;;;;;;23.21;100.00;101667.63;4994411;28;20072;-44
2023/05/07 10:38:10;;;;;;;9.10;7.10;;;;;;;23.30;100.00;101666.09;4977807;28;20109;-44
2023/05/07 10:40:36;;;;;;;9.07;7.95;;;;;;;23.38;100.00;101666.44;4994295;28;20121;-44
2023/05/07 10:43:06;;;;;;;8.30;7.38;;;;;;;23.21;100.00;101621.97;4995194;28;20478;-46
2023/05/07 10:45:32;;;;;;;8.77;7.38;;;;;;;23.12;100.00;101622.63;4995074;28;20054;-44
2023/05/07 10:48:16;;;;;;;8.93;7.72;;;;;;;22.84;100.00;101644.38;4977738;28;20088;-46
2023/05/07 10:50:46;;;;;;;9.68;7.95;;;;;;;22.36;100.00;101619.09;4994953;28;20042;-43
2023/05/07 10:53:17;;;;;;;8.60;7.70;;;;;;;22.74;100.00;101675.50;4977787;28;20101;-42
2023/05/07 10:55:50;;;;;;;12.90;9.43;;;;;;;22.21;100.00;101631.75;4994527;28;20389;-44
2023/05/07 10:58:21;;;;;;;11.98;9.10;;;;;;;22.80;100.00;101688.50;4993937;28;20121;-43